createdAt,value
2023-03-17T00:01:52.688Z,100620.22
2023-03-17T00:04:19.525Z,100692.41
2023-03-17T00:06:47.253Z,100612.59
2023-03-17T00:09:15.710Z,100691.63
2023-03-17T00:11:43.503Z,100679.94
2023-03-17T00:14:10.775Z,100711.19
2023-03-17T00:16:43.043Z,100713.22
2023-03-17T00:19:15.854Z,100718.19
2023-03-17T00:21:42.374Z,100696.56
2023-03-17T00:24:14.706Z,100651.63
2023-03-17T00:26:41.608Z,100715.22
2023-03-17T00:29:08.031Z,100702.81
2023-03-17T00:31:35.088Z,100692.19
2023-03-17T00:34:02.063Z,100700.41
2023-03-17T00:36:31.298Z,100685.81
2023-03-17T00:38:58.176Z,100693.63
2023-03-17T00:41:24.937Z,100698.78
2023-03-17T00:43:51.404Z,100695.19
2023-03-17T00:46:37.363Z,100691.97
2023-03-17T00:49:20.517Z,100701.16
2023-03-17T00:51:47.435Z,100677.94
2023-03-17T00:54:14.421Z,100665.88
2023-03-17T00:56:41.840Z,100699.53
2023-03-17T00:59:19.380Z,100687.72
2023-03-17T01:01:46.601Z,100697.91
2023-03-17T01:04:13.183Z,100682.69
2023-03-17T01:06:40.025Z,100677.47
2023-03-17T01:09:06.676Z,100672.28
2023-03-17T01:11:33.208Z,100602.22
2023-03-17T01:13:59.707Z,100683.28
2023-03-17T01:16:26.500Z,100667.03
2023-03-17T01:18:53.201Z,100672.47
2023-03-17T01:21:19.800Z,100666.47
2023-03-17T01:23:46.304Z,100679.47
2023-03-17T01:26:12.767Z,100599.00
2023-03-17T01:28:39.280Z,100660.03
2023-03-17T01:31:05.776Z,100667.00
2023-03-17T01:33:32.191Z,100600.41
2023-03-17T01:35:58.618Z,100602.63
2023-03-17T01:38:25.164Z,100631.59
2023-03-17T01:40:52.593Z,100670.09
2023-03-17T01:43:25.605Z,100650.66
2023-03-17T01:46:19.282Z,100636.25
2023-03-17T01:49:35.041Z,100637.25
2023-03-17T01:52:04.270Z,100624.22
2023-03-17T01:54:42.469Z,100632.03
2023-03-17T01:57:16.866Z,100577.44
2023-03-17T01:59:56.086Z,100582.25
2023-03-17T02:02:35.496Z,100611.81
2023-03-17T02:05:04.913Z,100634.88
2023-03-17T02:07:31.842Z,100623.69
2023-03-17T02:09:58.852Z,100558.69
2023-03-17T02:12:28.443Z,100624.47
2023-03-17T02:14:55.280Z,100629.31
2023-03-17T02:17:23.809Z,100635.50
2023-03-17T02:19:51.717Z,100605.66
2023-03-17T02:22:19.331Z,100518.91
2023-03-17T02:24:53.109Z,100586.44
2023-03-17T02:27:27.347Z,100579.84
2023-03-17T02:29:54.215Z,100588.44
2023-03-17T02:32:21.196Z,100583.03
2023-03-17T02:34:48.662Z,100514.91
2023-03-17T02:37:16.324Z,100577.84
2023-03-17T02:39:43.040Z,100553.78
2023-03-17T02:42:10.461Z,100589.47
2023-03-17T02:44:36.997Z,100580.44
2023-03-17T02:47:03.497Z,100570.22
2023-03-17T02:49:31.615Z,100584.25
2023-03-17T02:51:58.136Z,100508.31
2023-03-17T02:54:25.079Z,100564.78
2023-03-17T02:56:51.557Z,100594.25
2023-03-17T02:59:18.035Z,100573.41
2023-03-17T03:01:44.636Z,100588.25
2023-03-17T03:04:11.215Z,100587.66
2023-03-17T03:06:37.656Z,100514.91
2023-03-17T03:09:04.316Z,100556.22
2023-03-17T03:11:30.918Z,100567.41
2023-03-17T03:13:57.462Z,100512.53
2023-03-17T03:16:24.096Z,100542.16
2023-03-17T03:18:50.633Z,100542.97
2023-03-17T03:21:17.296Z,100611.88
2023-03-17T03:23:43.799Z,100561.22
2023-03-17T03:26:10.404Z,100562.81
2023-03-17T03:28:36.873Z,100581.03
2023-03-17T03:31:03.761Z,100568.63
2023-03-17T03:33:30.290Z,100578.44
2023-03-17T03:35:56.967Z,100539.44
2023-03-17T03:38:23.550Z,100593.41
2023-03-17T03:40:49.992Z,100602.41
2023-03-17T03:43:23.476Z,100624.03
2023-03-17T03:45:50.722Z,100595.75
2023-03-17T03:48:17.383Z,100584.75
2023-03-17T03:50:43.875Z,100581.88
2023-03-17T03:53:10.595Z,100611.28
2023-03-17T03:55:37.332Z,100674.09
2023-03-17T03:58:03.887Z,100657.25
2023-03-17T04:00:30.658Z,100677.69
2023-03-17T04:02:57.237Z,100656.47
2023-03-17T04:05:23.694Z,100655.03
2023-03-17T04:07:50.129Z,100654.44
2023-03-17T04:10:17.457Z,100655.03
2023-03-17T04:12:43.959Z,100612.47
2023-03-17T04:15:13.948Z,100595.16
2023-03-17T04:17:40.483Z,100650.69
2023-03-17T04:20:07.567Z,100667.00
2023-03-17T04:22:34.127Z,100641.19
2023-03-17T04:25:00.611Z,100648.44
2023-03-17T04:27:27.132Z,100647.19
2023-03-17T04:29:53.589Z,100633.47
2023-03-17T04:32:20.210Z,100636.34
2023-03-17T04:34:46.685Z,100607.06
2023-03-17T04:37:14.169Z,100553.22
2023-03-17T04:39:40.618Z,100533.47
2023-03-17T04:42:07.520Z,100603.88
2023-03-17T04:44:34.294Z,100550.38
2023-03-17T04:47:00.769Z,100606.31
2023-03-17T04:49:27.348Z,100608.13
2023-03-17T04:51:54.147Z,100572.59
2023-03-17T04:54:21.101Z,100595.47
2023-03-17T04:56:47.698Z,100598.06
2023-03-17T04:59:14.341Z,100542.41
2023-03-17T05:01:40.948Z,100556.06
2023-03-17T05:04:07.500Z,100578.88
2023-03-17T05:06:34.033Z,100587.41
2023-03-17T05:09:00.470Z,100563.03
2023-03-17T05:11:26.996Z,100571.28
2023-03-17T05:13:53.546Z,100501.47
2023-03-17T05:16:20.229Z,100554.66
2023-03-17T05:18:46.758Z,100532.09
2023-03-17T05:21:13.170Z,100529.69
2023-03-17T05:23:39.694Z,100467.94
2023-03-17T05:26:06.209Z,100463.72
2023-03-17T05:28:33.084Z,100523.66
2023-03-17T05:30:59.857Z,100442.13
2023-03-17T05:33:26.425Z,100476.59
2023-03-17T05:35:52.954Z,100533.50
2023-03-17T05:38:19.469Z,100531.22
2023-03-17T05:40:45.980Z,100571.00
2023-03-17T05:43:12.495Z,100524.78
2023-03-17T05:45:38.950Z,100519.41
2023-03-17T05:48:05.477Z,100509.81
2023-03-17T05:50:32.293Z,100504.59
2023-03-17T05:52:59.220Z,100466.91
2023-03-17T05:55:26.774Z,100480.78
2023-03-17T05:57:53.250Z,100473.94
2023-03-17T06:00:20.276Z,100423.56
2023-03-17T06:02:47.073Z,100475.50
2023-03-17T06:05:13.642Z,100461.28
2023-03-17T06:07:51.638Z,100457.72
2023-03-17T06:10:21.422Z,100473.16
2023-03-17T06:12:47.943Z,100457.34
2023-03-17T06:15:14.386Z,100443.13
2023-03-17T06:17:40.908Z,100443.13
2023-03-17T06:20:08.153Z,100462.97
2023-03-17T06:22:34.682Z,100406.31
2023-03-17T06:25:01.222Z,100450.94
2023-03-17T06:27:27.758Z,100396.03
2023-03-17T06:29:54.281Z,100429.34
2023-03-17T06:32:21.264Z,100466.78
2023-03-17T06:34:47.873Z,100467.22
2023-03-17T06:37:14.625Z,100467.81
2023-03-17T06:39:41.193Z,100485.41
2023-03-17T06:42:07.874Z,100478.63
2023-03-17T06:44:34.597Z,100465.22
2023-03-17T06:47:01.096Z,100484.84
2023-03-17T06:49:27.660Z,100476.66
2023-03-17T06:51:54.141Z,100489.44
2023-03-17T06:54:20.797Z,100475.88
2023-03-17T06:56:47.613Z,100515.50
2023-03-17T06:59:14.068Z,100513.50
2023-03-17T07:01:40.604Z,100513.94
2023-03-17T07:04:07.336Z,100612.00
2023-03-17T07:06:33.923Z,100624.03
2023-03-17T07:09:02.273Z,100659.44
2023-03-17T07:11:28.931Z,100703.94
2023-03-17T07:13:55.439Z,100637.88
2023-03-17T07:16:22.063Z,100708.75
2023-03-17T07:18:48.677Z,100706.16
2023-03-17T07:21:15.221Z,100682.88
2023-03-17T07:23:41.678Z,100669.06
2023-03-17T07:26:08.464Z,100676.91
2023-03-17T07:28:35.255Z,100635.41
2023-03-17T07:31:01.922Z,100670.09
2023-03-17T07:33:28.986Z,100694.50
2023-03-17T07:35:55.844Z,100708.19
2023-03-17T07:38:22.366Z,100727.50
2023-03-17T07:40:49.328Z,100741.13
2023-03-17T07:43:16.592Z,100746.22
2023-03-17T07:45:43.988Z,100687.50
2023-03-17T07:48:10.682Z,100764.72
2023-03-17T07:50:37.573Z,100713.97
2023-03-17T07:53:04.356Z,100765.72
2023-03-17T07:55:33.760Z,100803.66
2023-03-17T07:58:00.344Z,100816.31
2023-03-17T08:00:27.274Z,100820.72
2023-03-17T08:03:08.883Z,100818.31
2023-03-17T08:05:36.188Z,100848.03
2023-03-17T08:08:02.674Z,100869.34
2023-03-17T08:10:29.662Z,100880.56
2023-03-17T08:12:56.499Z,100865.22
2023-03-17T08:15:23.062Z,100898.25
2023-03-17T08:17:50.789Z,100899.22
2023-03-17T08:20:17.614Z,100897.81
2023-03-17T08:22:44.120Z,100885.56
2023-03-17T08:25:10.659Z,100889.19
2023-03-17T08:27:37.436Z,100902.06
2023-03-17T08:30:04.795Z,100905.47
2023-03-17T08:32:31.387Z,100885.81
2023-03-17T08:34:58.008Z,100908.28
2023-03-17T08:37:24.490Z,100899.06
2023-03-17T08:39:51.069Z,100896.44
2023-03-17T08:42:17.676Z,100900.47
2023-03-17T08:44:44.265Z,100911.69
2023-03-17T08:47:10.754Z,100903.56
2023-03-17T08:49:37.214Z,100876.06
2023-03-17T08:52:04.826Z,100894.94
2023-03-17T08:54:31.468Z,100908.56
2023-03-17T08:56:58.495Z,100898.66
2023-03-17T08:59:25.055Z,100897.50
2023-03-17T09:01:51.499Z,100906.94
2023-03-17T09:04:17.978Z,100948.16
2023-03-17T09:07:01.686Z,100955.56
2023-03-17T09:09:29.177Z,100948.53
2023-03-17T09:11:55.676Z,100936.88
2023-03-17T09:14:22.301Z,100934.19
2023-03-17T09:16:48.784Z,100952.13
2023-03-17T09:19:15.402Z,100883.47
2023-03-17T09:21:42.222Z,100968.13
2023-03-17T09:24:08.947Z,100959.09
2023-03-17T09:26:35.939Z,100940.63
2023-03-17T09:29:04.366Z,100876.34
2023-03-17T09:31:32.671Z,100906.84
2023-03-17T09:33:59.391Z,100965.69
2023-03-17T09:36:26.001Z,100939.34
2023-03-17T09:38:52.704Z,100956.72
2023-03-17T09:41:34.476Z,100951.75
2023-03-17T09:44:18.408Z,100949.38
2023-03-17T09:47:21.711Z,100940.03
2023-03-17T09:49:52.163Z,100934.78
2023-03-17T09:52:25.684Z,100920.50
2023-03-17T09:54:52.298Z,100894.00
2023-03-17T09:57:28.984Z,100906.94
2023-03-17T10:00:20.683Z,101000.50
2023-03-17T10:02:47.266Z,100983.38
2023-03-17T10:05:26.807Z,100992.03
2023-03-17T10:08:28.919Z,100959.56
2023-03-17T10:11:12.005Z,100893.69
2023-03-17T10:14:00.169Z,100961.28
2023-03-17T10:17:00.523Z,100933.47
2023-03-17T10:19:35.799Z,100834.81
2023-03-17T10:22:15.232Z,100874.09
2023-03-17T10:24:47.209Z,100931.84
2023-03-17T10:27:18.338Z,100929.09
2023-03-17T10:29:47.839Z,100951.56
2023-03-17T10:32:15.203Z,100931.28
2023-03-17T10:34:43.183Z,100915.50
2023-03-17T10:37:14.482Z,100928.03
2023-03-17T10:39:49.519Z,100900.09
2023-03-17T10:42:27.740Z,100812.38
2023-03-17T10:45:01.332Z,100738.25
2023-03-17T10:47:37.541Z,100724.97
2023-03-17T10:50:22.282Z,100846.53
2023-03-17T10:52:57.226Z,100890.66
2023-03-17T10:55:28.369Z,100869.06
2023-03-17T10:58:03.136Z,100870.44
2023-03-17T11:00:32.078Z,100858.84
2023-03-17T11:03:00.116Z,100853.22
2023-03-17T11:05:29.280Z,100820.94
2023-03-17T11:08:17.365Z,100797.03
2023-03-17T11:10:44.913Z,100786.91
2023-03-17T11:13:17.054Z,100768.69
2023-03-17T11:15:49.690Z,100741.34
2023-03-17T11:18:22.828Z,100762.22
2023-03-17T11:21:04.963Z,100692.09
2023-03-17T11:24:08.282Z,100754.97
2023-03-17T11:26:46.848Z,100732.84
2023-03-17T11:29:20.407Z,100704.84
2023-03-17T11:31:59.181Z,100727.78
2023-03-17T11:34:34.939Z,100673.25
2023-03-17T11:37:18.840Z,100729.31
2023-03-17T11:40:06.444Z,100747.72
2023-03-17T11:42:59.602Z,100705.38
2023-03-17T11:45:46.670Z,100710.22
2023-03-17T11:48:17.056Z,100707.09
2023-03-17T11:51:12.946Z,100711.97
2023-03-17T11:53:52.909Z,100711.97
2023-03-17T11:56:28.638Z,100676.00
2023-03-17T11:59:13.583Z,100698.16
2023-03-17T12:01:50.230Z,100705.34
2023-03-17T12:04:27.696Z,100597.50
2023-03-17T12:07:00.789Z,100669.38
2023-03-17T12:09:41.417Z,100645.59
2023-03-17T12:12:11.009Z,100622.03
2023-03-17T12:14:45.543Z,100561.66
2023-03-17T12:17:21.700Z,100616.41
2023-03-17T12:20:14.343Z,100602.38
2023-03-17T12:22:47.689Z,100588.41
2023-03-17T12:25:37.994Z,100563.28
2023-03-17T12:28:08.886Z,100549.56
2023-03-17T12:30:47.790Z,100556.31
2023-03-17T12:33:16.994Z,100499.78
2023-03-17T12:35:44.917Z,100495.25
2023-03-17T12:38:19.218Z,100463.13
2023-03-17T12:41:07.314Z,100407.91
2023-03-17T12:43:36.928Z,100485.91
2023-03-17T12:46:09.485Z,100423.03
2023-03-17T12:49:17.668Z,100406.84
2023-03-17T12:51:49.846Z,100381.69
2023-03-17T12:54:37.638Z,100355.38
2023-03-17T12:57:19.253Z,100313.94
2023-03-17T12:59:49.490Z,100322.47
2023-03-17T13:02:30.429Z,100278.16
2023-03-17T13:04:59.098Z,100286.25
2023-03-17T13:07:32.593Z,100243.13
2023-03-17T13:09:59.155Z,100254.50
2023-03-17T13:12:40.810Z,100250.78
2023-03-17T13:15:25.728Z,100147.75
2023-03-17T13:18:12.512Z,100184.69
2023-03-17T13:20:51.329Z,100153.53
2023-03-17T13:23:20.834Z,100088.03
2023-03-17T13:25:49.005Z,100080.78
2023-03-17T13:28:15.440Z,99929.78
2023-03-17T13:31:14.496Z,99979.47
2023-03-17T13:33:49.690Z,99900.34
2023-03-17T13:36:29.235Z,99854.56
2023-03-17T13:39:19.663Z,99913.13
2023-03-17T13:42:18.132Z,99779.91
2023-03-17T13:45:03.688Z,99791.13
2023-03-17T13:47:38.870Z,99792.19
2023-03-17T13:50:20.939Z,99676.97
2023-03-17T13:52:53.447Z,99590.66
2023-03-17T13:55:20.683Z,99544.03
2023-03-17T13:58:11.397Z,99533.72
2023-03-17T14:00:47.775Z,99475.50
2023-03-17T14:03:34.323Z,99412.72
2023-03-17T14:06:04.597Z,99373.84
2023-03-17T14:08:35.798Z,99320.25
2023-03-17T14:11:24.048Z,99320.25
2023-03-17T14:14:15.138Z,99289.16
2023-03-17T14:16:54.176Z,99375.88
2023-03-17T14:19:27.578Z,99346.84
2023-03-17T14:22:15.818Z,99279.63
2023-03-17T14:24:42.411Z,99272.97
2023-03-17T14:27:12.354Z,99196.72
2023-03-17T14:29:38.900Z,99203.50
2023-03-17T14:32:12.405Z,99182.47
2023-03-17T14:34:43.593Z,99210.50
2023-03-17T14:37:11.644Z,99121.00
2023-03-17T14:39:54.834Z,99068.47
2023-03-17T14:42:30.812Z,99089.09
2023-03-17T14:45:08.433Z,99100.38
2023-03-17T14:47:41.142Z,99154.53
2023-03-17T14:50:27.990Z,99130.84
2023-03-17T14:52:55.088Z,99132.28
2023-03-17T14:55:22.152Z,99054.84
2023-03-17T14:57:51.619Z,99095.50
2023-03-17T15:00:35.135Z,99078.88
2023-03-17T15:03:03.122Z,99068.53
2023-03-17T15:05:41.269Z,99082.22
2023-03-17T15:08:36.568Z,99028.00
2023-03-17T15:11:05.413Z,99035.31
2023-03-17T15:13:37.586Z,98964.22
2023-03-17T15:16:21.509Z,99031.66
2023-03-17T15:18:53.668Z,99031.28
2023-03-17T15:21:29.751Z,99013.50
2023-03-17T15:23:56.274Z,99009.25
2023-03-17T15:26:30.806Z,98934.09
2023-03-17T15:28:59.504Z,98995.19
2023-03-17T15:31:28.475Z,98946.78
2023-03-17T15:33:58.376Z,98992.72
2023-03-17T15:36:32.698Z,98953.66
2023-03-17T15:39:00.525Z,98965.47
2023-03-17T15:41:27.158Z,99000.34
2023-03-17T15:43:53.732Z,98968.59
2023-03-17T15:46:26.465Z,98960.19
2023-03-17T15:48:53.426Z,98946.81
2023-03-17T15:51:19.887Z,98914.09
2023-03-17T15:53:46.413Z,98972.88
2023-03-17T15:56:19.216Z,99017.78
2023-03-17T15:58:50.141Z,98931.78
2023-03-17T16:01:16.803Z,98920.28
2023-03-17T16:03:43.901Z,98996.41
2023-03-17T16:06:18.556Z,98938.34
2023-03-17T16:08:45.619Z,98941.44
2023-03-17T16:11:21.451Z,98950.88
2023-03-17T16:13:47.989Z,98977.50
2023-03-17T16:16:44.998Z,98999.03
2023-03-17T16:19:22.497Z,99036.53
2023-03-17T16:21:49.135Z,99070.53
2023-03-17T16:24:18.948Z,98981.63
2023-03-17T16:26:45.865Z,98975.03
2023-03-17T16:29:14.212Z,99013.56
2023-03-17T16:31:41.357Z,98996.69
2023-03-17T16:34:23.231Z,98989.19
2023-03-17T16:36:50.569Z,98979.88
2023-03-17T16:39:22.367Z,98972.41
2023-03-17T16:41:50.358Z,98981.53
2023-03-17T16:44:20.390Z,98940.78
2023-03-17T16:46:47.549Z,99019.06
2023-03-17T16:49:19.913Z,98939.47
2023-03-17T16:51:46.918Z,98964.84
2023-03-17T16:54:14.234Z,98911.47
2023-03-17T16:56:41.414Z,98858.78
2023-03-17T16:59:19.573Z,98834.19
2023-03-17T17:01:46.114Z,98823.63
2023-03-17T17:04:12.852Z,98838.16
2023-03-17T17:06:39.384Z,98852.72
2023-03-17T17:09:05.897Z,98881.88
2023-03-17T17:11:32.362Z,98838.69
2023-03-17T17:13:58.908Z,98865.97
2023-03-17T17:16:30.860Z,98859.75
2023-03-17T17:18:58.448Z,98918.78
2023-03-17T17:21:26.127Z,98938.53
2023-03-17T17:23:53.279Z,98995.88
2023-03-17T17:26:20.417Z,99009.75
2023-03-17T17:28:47.193Z,99046.84
2023-03-17T17:31:13.759Z,99067.19
2023-03-17T17:33:40.288Z,99089.44
2023-03-17T17:36:14.340Z,99086.69
2023-03-17T17:38:41.089Z,99087.34
2023-03-17T17:41:10.775Z,99083.22
2023-03-17T17:43:37.584Z,99124.94
2023-03-17T17:46:09.279Z,99094.31
2023-03-17T17:48:35.759Z,99108.34
2023-03-17T17:51:02.349Z,99092.91
2023-03-17T17:53:28.872Z,99119.06
2023-03-17T17:55:55.386Z,99096.88
2023-03-17T17:58:24.488Z,99127.81
2023-03-17T18:00:52.579Z,99046.03
2023-03-17T18:03:19.216Z,99061.25
2023-03-17T18:05:45.700Z,99076.22
2023-03-17T18:08:13.998Z,99113.03
2023-03-17T18:10:40.648Z,99042.41
2023-03-17T18:13:08.584Z,99111.25
2023-03-17T18:15:35.353Z,99101.50
2023-03-17T18:18:02.202Z,99122.94
2023-03-17T18:20:28.723Z,99109.22
2023-03-17T18:22:55.238Z,99093.56
2023-03-17T18:25:21.737Z,99049.44
2023-03-17T18:27:48.473Z,99094.66
2023-03-17T18:30:24.897Z,99074.22
2023-03-17T18:32:56.017Z,99072.84
2023-03-17T18:35:25.324Z,99088.38
2023-03-17T18:37:51.864Z,99066.41
2023-03-17T18:40:19.447Z,99086.03
2023-03-17T18:42:46.843Z,99077.91
2023-03-17T18:45:14.117Z,99044.81
2023-03-17T18:47:40.797Z,99013.38
2023-03-17T18:50:09.481Z,98996.78
2023-03-17T18:52:38.785Z,98966.78
2023-03-17T18:55:06.043Z,98948.31
2023-03-17T18:57:32.647Z,98950.47
2023-03-17T18:59:59.497Z,98947.84
2023-03-17T19:02:26.116Z,98969.66
2023-03-17T19:04:52.677Z,98996.69
2023-03-17T19:07:19.297Z,99021.13
2023-03-17T19:09:45.870Z,99039.50
2023-03-17T19:12:12.485Z,99064.72
2023-03-17T19:14:39.527Z,99090.19
2023-03-17T19:17:07.528Z,99124.88
2023-03-17T19:19:35.267Z,99147.19
2023-03-17T19:22:02.189Z,99144.81
2023-03-17T19:24:28.784Z,99166.88
2023-03-17T19:26:55.285Z,99117.91
2023-03-17T19:29:21.858Z,99199.41
2023-03-17T19:31:48.838Z,99231.19
2023-03-17T19:34:15.393Z,99246.16
2023-03-17T19:36:44.063Z,99277.38
2023-03-17T19:39:10.779Z,99371.84
2023-03-17T19:41:37.663Z,99456.81
2023-03-17T19:44:06.185Z,99565.41
2023-03-17T19:46:33.498Z,99651.25
2023-03-17T19:49:00.088Z,99695.22
2023-03-17T19:51:27.474Z,99797.09
2023-03-17T19:53:54.696Z,99799.56
2023-03-17T19:56:21.492Z,99888.13
2023-03-17T19:58:48.029Z,99981.88
2023-03-17T20:01:16.135Z,100029.94
2023-03-17T20:03:42.827Z,100076.00
2023-03-17T20:06:10.943Z,100147.78
2023-03-17T20:08:37.529Z,100191.38
2023-03-17T20:11:04.907Z,100296.91
2023-03-17T20:13:32.168Z,100281.09
2023-03-17T20:15:58.800Z,100428.84
2023-03-17T20:18:25.377Z,100476.53
2023-03-17T20:20:54.520Z,100513.72
2023-03-17T20:23:21.416Z,100561.78
2023-03-17T20:25:49.087Z,100583.84
2023-03-17T20:28:16.861Z,100563.38
2023-03-17T20:30:45.113Z,100677.91
2023-03-17T20:33:12.618Z,100689.78
2023-03-17T20:35:40.930Z,100730.66
2023-03-17T20:38:08.055Z,100723.22
2023-03-17T20:40:34.778Z,100730.50
2023-03-17T20:43:01.437Z,100707.84
2023-03-17T20:45:28.211Z,100722.47
2023-03-17T20:47:54.749Z,100719.84
2023-03-17T20:50:21.495Z,100674.16
2023-03-17T20:52:48.433Z,100657.31
2023-03-17T20:55:16.820Z,100687.06
2023-03-17T20:57:44.637Z,100646.34
2023-03-17T21:00:22.124Z,100575.22
2023-03-17T21:02:48.925Z,100501.47
2023-03-17T21:05:20.304Z,100469.69
2023-03-17T21:07:47.608Z,100453.38
2023-03-17T21:10:15.336Z,100426.50
2023-03-17T21:12:42.243Z,100425.25
2023-03-17T21:15:10.543Z,100417.38
2023-03-17T21:17:37.856Z,100416.25
2023-03-17T21:20:06.374Z,100384.56
2023-03-17T21:22:34.147Z,100412.22
2023-03-17T21:25:00.845Z,100423.63
2023-03-17T21:27:27.479Z,100406.91
2023-03-17T21:29:53.950Z,100461.69
2023-03-17T21:32:20.577Z,100491.97
2023-03-17T21:34:47.185Z,100484.38
2023-03-17T21:37:14.399Z,100511.78
2023-03-17T21:39:41.034Z,100505.81
2023-03-17T21:42:07.615Z,100529.03
2023-03-17T21:44:34.252Z,100474.78
2023-03-17T21:47:00.765Z,100535.22
2023-03-17T21:49:27.478Z,100539.31
2023-03-17T21:51:54.165Z,100560.53
2023-03-17T21:54:21.368Z,100548.53
2023-03-17T21:56:48.674Z,100527.16
2023-03-17T21:59:16.004Z,100586.72
2023-03-17T22:01:43.271Z,100524.22
2023-03-17T22:04:11.120Z,100562.94
2023-03-17T22:06:37.762Z,100575.94
2023-03-17T22:09:05.835Z,100562.56
2023-03-17T22:11:32.329Z,100567.81
2023-03-17T22:13:59.192Z,100540.19
2023-03-17T22:16:26.054Z,100579.28
2023-03-17T22:18:52.784Z,100554.94
2023-03-17T22:21:19.377Z,100564.16
2023-03-17T22:23:45.942Z,100638.50
2023-03-17T22:26:21.391Z,100641.91
2023-03-17T22:28:50.032Z,100623.94
2023-03-17T22:31:18.448Z,100616.59
2023-03-17T22:33:45.486Z,100559.09
2023-03-17T22:36:12.705Z,100578.09
2023-03-17T22:38:39.382Z,100569.78
2023-03-17T22:41:11.371Z,100612.72
2023-03-17T22:43:38.302Z,100615.69
2023-03-17T22:46:05.533Z,100622.19
2023-03-17T22:48:32.399Z,100625.66
2023-03-17T22:51:13.767Z,100608.00
2023-03-17T22:53:41.368Z,100610.81
2023-03-17T22:56:09.122Z,100615.28
2023-03-17T22:58:35.939Z,100545.84
2023-03-17T23:01:02.979Z,100623.88
2023-03-17T23:03:30.233Z,100593.75
2023-03-17T23:05:58.999Z,100594.53
2023-03-17T23:08:26.985Z,100606.81
2023-03-17T23:10:53.880Z,100624.34
2023-03-17T23:13:20.886Z,100617.13
2023-03-17T23:15:47.521Z,100609.63
2023-03-17T23:18:14.182Z,100596.47
2023-03-17T23:20:41.546Z,100585.94
2023-03-17T23:23:09.915Z,100605.84
2023-03-17T23:25:37.054Z,100583.63
2023-03-17T23:28:05.366Z,100594.84
2023-03-17T23:30:32.110Z,100501.91
2023-03-17T23:32:58.843Z,100571.31
2023-03-17T23:35:25.689Z,100545.00
2023-03-17T23:37:52.326Z,100538.28
2023-03-17T23:40:18.938Z,100529.72
2023-03-17T23:42:47.218Z,100505.09
2023-03-17T23:45:14.083Z,100459.06
2023-03-17T23:47:41.327Z,100426.56
2023-03-17T23:50:09.456Z,100315.03
2023-03-17T23:52:36.044Z,100370.16
2023-03-17T23:55:04.279Z,100259.13
2023-03-17T23:57:30.871Z,100317.91
2023-03-17T23:59:57.353Z,100305.19
